createdAt,value
2018-08-22T00:00:58.717Z,55.10
2018-08-22T00:03:25.829Z,55.10
2018-08-22T00:05:53.056Z,55.10
2018-08-22T00:08:25.852Z,55.10
2018-08-22T00:10:52.986Z,55.10
2018-08-22T00:13:20.110Z,55.20
2018-08-22T00:15:47.542Z,55.20
2018-08-22T00:18:14.652Z,55.20
2018-08-22T00:20:41.764Z,55.30
2018-08-22T00:23:08.889Z,55.20
2018-08-22T00:25:35.985Z,55.20
2018-08-22T00:28:03.096Z,55.20
2018-08-22T00:30:30.216Z,55.20
2018-08-22T00:32:57.327Z,55.20
2018-08-22T00:35:24.540Z,55.20
2018-08-22T00:37:51.674Z,55.20
2018-08-22T00:40:18.784Z,55.20
2018-08-22T00:42:45.901Z,55.20
2018-08-22T00:45:13.388Z,55.20
2018-08-22T00:47:40.524Z,55.20
2018-08-22T00:50:07.625Z,55.20
2018-08-22T00:52:34.761Z,55.20
2018-08-22T00:55:01.878Z,55.20
2018-08-22T00:57:28.993Z,55.20
2018-08-22T00:59:57.068Z,55.20
2018-08-22T01:02:24.239Z,55.20
2018-08-22T01:04:51.660Z,55.20
2018-08-22T01:07:18.771Z,55.20
2018-08-22T01:09:45.935Z,55.10
2018-08-22T01:12:13.045Z,55.10
2018-08-22T01:14:40.484Z,55.10
2018-08-22T01:17:07.623Z,55.10
2018-08-22T01:19:34.730Z,55.10
2018-08-22T01:22:01.853Z,55.10
2018-08-22T01:24:28.944Z,55.10
2018-08-22T01:26:56.081Z,55.10
2018-08-22T01:29:23.194Z,55.00
2018-08-22T01:31:50.317Z,55.00
2018-08-22T01:34:23.465Z,55.00
2018-08-22T01:36:52.572Z,54.90
2018-08-22T01:39:19.695Z,54.90
2018-08-22T01:41:46.832Z,54.90
2018-08-22T01:44:13.949Z,54.90
2018-08-22T01:53:42.307Z,54.90
2018-08-22T01:56:09.412Z,54.80
2018-08-22T01:58:36.897Z,54.80
2018-08-22T02:01:04.012Z,54.80
2018-08-22T02:03:31.117Z,55.00
2018-08-22T02:05:58.368Z,54.80
2018-08-22T02:08:25.485Z,54.80
2018-08-22T02:10:53.116Z,54.80
2018-08-22T02:13:20.272Z,54.80
2018-08-22T02:15:47.377Z,54.80
2018-08-22T02:18:14.499Z,54.80
2018-08-22T02:20:41.612Z,54.70
2018-08-22T02:23:08.728Z,54.70
2018-08-22T02:25:35.862Z,54.70
2018-08-22T02:28:03.016Z,54.70
2018-08-22T02:30:30.125Z,54.70
2018-08-22T02:32:57.273Z,54.70
2018-08-22T02:35:24.389Z,54.80
2018-08-22T02:37:51.505Z,54.70
2018-08-22T02:40:18.637Z,54.60
2018-08-22T02:42:45.758Z,54.60
2018-08-22T02:45:12.876Z,54.60
2018-08-22T02:47:40.009Z,54.60
2018-08-22T02:50:07.154Z,54.60
2018-08-22T02:52:34.301Z,54.90
2018-08-22T02:55:03.325Z,54.60
2018-08-22T02:57:30.454Z,54.60
2018-08-22T02:59:57.579Z,54.60
2018-08-22T03:02:24.710Z,54.60
2018-08-22T03:04:52.074Z,54.70
2018-08-22T03:07:19.205Z,54.70
2018-08-22T03:09:46.320Z,54.70
2018-08-22T03:12:13.462Z,54.70
2018-08-22T03:14:40.579Z,54.70
2018-08-22T03:17:07.722Z,54.70
2018-08-22T03:19:34.847Z,54.70
2018-08-22T03:22:01.977Z,54.70
2018-08-22T03:24:29.114Z,54.60
2018-08-22T03:26:56.276Z,54.60
2018-08-22T03:29:23.429Z,54.60
2018-08-22T03:31:50.636Z,54.60
2018-08-22T03:34:18.070Z,54.60
2018-08-22T03:36:45.237Z,54.60
2018-08-22T03:39:12.349Z,54.40
2018-08-22T03:41:39.488Z,54.60
2018-08-22T03:44:06.649Z,54.60
2018-08-22T03:46:33.834Z,54.70
2018-08-22T03:49:00.933Z,54.60
2018-08-22T03:51:28.056Z,54.50
2018-08-22T03:53:55.506Z,54.50
2018-08-22T03:56:22.643Z,54.50
2018-08-22T03:58:49.761Z,54.40
2018-08-22T04:01:16.888Z,54.40
2018-08-22T04:03:44.070Z,54.70
2018-08-22T04:06:11.189Z,54.40
2018-08-22T04:08:43.663Z,54.40
2018-08-22T04:11:15.281Z,54.40
2018-08-22T04:13:42.609Z,54.30
2018-08-22T04:16:09.718Z,54.30
2018-08-22T04:18:36.846Z,54.30
2018-08-22T04:21:03.957Z,54.20
2018-08-22T04:23:31.070Z,54.20
2018-08-22T04:25:58.181Z,54.20
2018-08-22T04:28:25.313Z,54.20
2018-08-22T04:30:52.469Z,54.20
2018-08-22T04:33:19.574Z,54.20
2018-08-22T04:35:46.682Z,54.20
2018-08-22T04:38:20.149Z,54.30
2018-08-22T04:40:47.261Z,54.30
2018-08-22T04:43:14.409Z,54.20
2018-08-22T04:45:41.536Z,54.20
2018-08-22T04:49:38.265Z,54.20
2018-08-22T04:52:05.366Z,54.20
2018-08-22T04:54:32.473Z,54.20
2018-08-22T04:56:59.832Z,54.20
2018-08-22T04:59:26.943Z,54.20
2018-08-22T05:01:54.113Z,54.20
2018-08-22T05:04:21.305Z,54.20
2018-08-22T05:06:48.569Z,54.20
2018-08-22T05:09:15.688Z,54.20
2018-08-22T05:11:42.873Z,54.30
2018-08-22T05:14:10.237Z,54.30
2018-08-22T05:16:37.365Z,54.30
2018-08-22T05:19:04.486Z,54.30
2018-08-22T05:21:31.593Z,54.30
2018-08-22T05:23:58.716Z,54.30
2018-08-22T05:26:25.834Z,54.30
2018-08-22T05:28:57.077Z,54.20
2018-08-22T05:31:24.194Z,54.20
2018-08-22T05:33:51.334Z,54.20
2018-08-22T05:36:18.459Z,54.10
2018-08-22T05:38:45.616Z,54.00
2018-08-22T05:41:12.761Z,54.20
2018-08-22T05:43:40.461Z,54.10
2018-08-22T05:46:07.604Z,54.10
2018-08-22T05:48:34.674Z,54.00
2018-08-22T05:51:01.799Z,54.00
2018-08-22T05:53:28.881Z,54.00
2018-08-22T05:55:56.053Z,53.90
2018-08-22T05:58:23.145Z,53.90
2018-08-22T06:00:50.222Z,53.80
2018-08-22T06:03:17.669Z,54.00
2018-08-22T06:05:44.741Z,53.70
2018-08-22T06:08:11.816Z,53.60
2018-08-22T06:10:38.937Z,53.70
2018-08-22T06:13:06.291Z,53.80
2018-08-22T06:15:33.362Z,53.90
2018-08-22T06:18:00.805Z,54.00
2018-08-22T06:20:27.917Z,54.10
2018-08-22T06:22:55.025Z,54.10
2018-08-22T06:25:22.116Z,54.10
2018-08-22T06:27:49.217Z,54.20
2018-08-22T06:30:16.589Z,54.40
2018-08-22T06:32:43.709Z,54.50
2018-08-22T06:35:10.796Z,54.70
2018-08-22T06:37:37.902Z,54.90
2018-08-22T06:40:05.270Z,55.10
2018-08-22T06:42:32.378Z,55.10
2018-08-22T06:44:59.462Z,55.30
2018-08-22T06:47:26.555Z,55.30
2018-08-22T06:49:53.657Z,55.40
2018-08-22T06:52:21.123Z,55.50
2018-08-22T06:54:48.222Z,55.50
2018-08-22T06:57:15.467Z,55.50
2018-08-22T06:59:42.424Z,55.60
2018-08-22T07:02:09.519Z,55.70
2018-08-22T07:04:36.597Z,55.70
2018-08-22T07:07:03.809Z,55.80
2018-08-22T07:09:31.185Z,55.80
2018-08-22T07:11:58.261Z,55.90
2018-08-22T07:14:25.343Z,55.80
2018-08-22T07:16:52.514Z,55.90
2018-08-22T07:19:19.603Z,55.90
2018-08-22T07:21:46.727Z,55.90
2018-08-22T07:24:13.810Z,55.90
2018-08-22T07:26:40.886Z,55.70
2018-08-22T07:29:07.961Z,55.80
2018-08-22T07:31:35.044Z,55.70
2018-08-22T07:34:02.140Z,55.70
2018-08-22T07:36:29.313Z,55.60
2018-08-22T07:38:56.365Z,55.40
2018-08-22T07:41:23.445Z,55.20
2018-08-22T07:43:50.548Z,55.00
2018-08-22T07:46:17.629Z,54.80
2018-08-22T07:48:44.721Z,54.60
2018-08-22T07:51:11.848Z,54.40
2018-08-22T07:53:38.971Z,54.30
2018-08-22T07:56:06.081Z,54.20
2018-08-22T07:58:33.197Z,54.00
2018-08-22T08:01:00.322Z,54.20
2018-08-22T08:03:27.443Z,54.30
2018-08-22T08:05:54.565Z,54.50
2018-08-22T08:08:21.695Z,54.70
2018-08-22T08:10:48.850Z,54.90
2018-08-22T08:13:21.747Z,54.90
2018-08-22T08:15:49.358Z,55.00
2018-08-22T08:18:16.490Z,55.00
2018-08-22T08:20:43.598Z,55.00
2018-08-22T08:23:10.713Z,55.10
2018-08-22T08:25:37.857Z,55.10
2018-08-22T08:28:04.929Z,55.10
2018-08-22T08:30:32.056Z,55.20
2018-08-22T08:32:59.105Z,55.20
2018-08-22T08:35:26.205Z,55.10
2018-08-22T08:37:53.325Z,55.00
2018-08-22T08:40:20.447Z,55.00
2018-08-22T08:42:47.557Z,55.10
2018-08-22T08:45:14.660Z,55.00
2018-08-22T08:47:41.767Z,55.00
2018-08-22T08:50:08.863Z,54.90
2018-08-22T08:52:36.066Z,54.90
2018-08-22T08:55:03.153Z,55.00
2018-08-22T08:57:30.246Z,55.00
2018-08-22T08:59:57.321Z,54.90
2018-08-22T09:02:24.602Z,54.80
2018-08-22T09:04:51.674Z,54.70
2018-08-22T09:07:18.746Z,54.70
2018-08-22T09:09:45.833Z,54.80
2018-08-22T09:12:12.921Z,54.80
2018-08-22T09:14:40.018Z,54.80
2018-08-22T09:17:07.122Z,54.80
2018-08-22T09:19:34.473Z,54.70
2018-08-22T09:22:01.749Z,54.70
2018-08-22T09:24:28.841Z,54.70
2018-08-22T09:26:55.964Z,54.60
2018-08-22T09:29:23.645Z,54.50
2018-08-22T09:31:50.740Z,54.50
2018-08-22T09:34:17.844Z,54.50
2018-08-22T09:36:44.926Z,54.30
2018-08-22T09:39:12.851Z,54.20
2018-08-22T09:41:40.441Z,53.80
2018-08-22T09:44:07.969Z,53.60
2018-08-22T09:46:35.470Z,53.60
2018-08-22T09:49:02.736Z,53.60
2018-08-22T09:51:29.810Z,53.60
2018-08-22T09:53:56.909Z,53.60
2018-08-22T09:56:26.070Z,53.40
2018-08-22T09:58:53.276Z,53.40
2018-08-22T10:01:26.114Z,53.30
2018-08-22T10:03:56.773Z,53.20
2018-08-22T10:06:31.239Z,53.10
2018-08-22T10:09:00.337Z,53.10
2018-08-22T10:11:27.590Z,53.20
2018-08-22T10:13:55.553Z,53.20
2018-08-22T10:16:23.010Z,53.00
2018-08-22T10:18:50.720Z,53.00
2018-08-22T10:21:17.862Z,52.90
2018-08-22T10:23:45.003Z,53.00
2018-08-22T10:26:12.216Z,52.80
2018-08-22T10:28:39.602Z,52.80
2018-08-22T10:31:06.730Z,52.70
2018-08-22T10:33:33.849Z,52.50
2018-08-22T10:36:01.000Z,52.40
2018-08-22T10:38:28.101Z,52.30
2018-08-22T10:40:55.502Z,52.50
2018-08-22T10:43:22.634Z,52.40
2018-08-22T10:45:50.429Z,52.40
2018-08-22T10:48:17.513Z,52.20
2018-08-22T10:50:44.782Z,52.30
2018-08-22T10:53:11.854Z,52.20
2018-08-22T10:55:38.934Z,52.10
2018-08-22T10:58:06.042Z,52.10
2018-08-22T11:00:33.438Z,52.00
2018-08-22T11:03:00.541Z,52.00
2018-08-22T11:05:27.654Z,52.00
2018-08-22T11:07:54.950Z,51.90
2018-08-22T11:10:22.049Z,51.80
2018-08-22T11:12:55.189Z,51.60
2018-08-22T11:15:22.281Z,51.60
2018-08-22T11:17:49.378Z,51.40
2018-08-22T11:20:16.536Z,51.30
2018-08-22T11:22:55.309Z,51.10
2018-08-22T11:25:34.130Z,50.90
2018-08-22T11:28:12.763Z,51.00
2018-08-22T11:30:51.561Z,51.10
2018-08-22T11:33:30.294Z,51.10
2018-08-22T11:35:56.533Z,51.10
2018-08-22T11:38:23.694Z,51.20
2018-08-22T11:40:51.104Z,51.30
2018-08-22T11:43:18.536Z,51.10
2018-08-22T11:45:45.752Z,51.10
2018-08-22T11:48:12.906Z,51.00
2018-08-22T11:50:40.191Z,51.00
2018-08-22T11:53:07.282Z,51.00
2018-08-22T11:55:34.397Z,51.00
2018-08-22T11:58:01.489Z,51.10
2018-08-22T12:00:28.593Z,51.00
2018-08-22T12:02:55.680Z,51.10
2018-08-22T12:05:22.773Z,50.80
2018-08-22T12:07:49.861Z,50.60
2018-08-22T12:10:16.963Z,50.60
2018-08-22T12:12:44.055Z,50.50
2018-08-22T12:15:11.281Z,50.50
2018-08-22T12:17:38.389Z,50.30
2018-08-22T12:20:05.531Z,50.10
2018-08-22T12:22:32.645Z,50.20
2018-08-22T12:24:59.747Z,50.20
2018-08-22T12:27:26.886Z,50.10
2018-08-22T12:29:53.981Z,50.10
2018-08-22T12:32:27.636Z,50.00
2018-08-22T12:34:54.961Z,50.20
2018-08-22T12:37:22.041Z,50.20
2018-08-22T12:39:49.122Z,50.00
2018-08-22T12:42:16.238Z,49.80
2018-08-22T12:44:43.547Z,49.80
2018-08-22T12:47:12.688Z,49.90
2018-08-22T12:49:39.786Z,49.90
2018-08-22T12:52:06.885Z,49.90
2018-08-22T12:54:33.970Z,49.80
2018-08-22T12:57:01.037Z,49.50
2018-08-22T12:59:28.129Z,49.70
2018-08-22T13:01:55.209Z,49.70
2018-08-22T13:04:22.291Z,49.90
2018-08-22T13:06:49.373Z,49.70
2018-08-22T13:09:16.457Z,49.60
2018-08-22T13:11:43.546Z,49.60
2018-08-22T13:14:10.645Z,49.50
2018-08-22T13:16:37.745Z,49.60
2018-08-22T13:19:04.948Z,49.50
2018-08-22T13:21:32.024Z,49.40
2018-08-22T13:23:59.161Z,49.20
2018-08-22T13:26:26.222Z,48.90
2018-08-22T13:28:53.341Z,48.90
2018-08-22T13:31:20.421Z,48.70
2018-08-22T13:33:47.508Z,48.80
2018-08-22T13:36:14.616Z,48.60
2018-08-22T13:38:41.686Z,48.90
2018-08-22T13:41:08.777Z,48.20
2018-08-22T13:43:35.857Z,48.40
2018-08-22T13:46:02.937Z,48.40
2018-08-22T13:48:30.017Z,48.80
2018-08-22T13:50:57.190Z,48.40
2018-08-22T13:53:24.201Z,48.50
2018-08-22T13:55:51.303Z,48.50
2018-08-22T13:58:18.389Z,48.40
2018-08-22T14:00:45.486Z,48.40
2018-08-22T14:03:12.585Z,48.40
2018-08-22T14:05:39.696Z,48.40
2018-08-22T14:08:06.794Z,48.90
2018-08-22T14:10:34.106Z,48.50
2018-08-22T14:13:01.358Z,48.60
2018-08-22T14:15:28.442Z,48.60
2018-08-22T14:17:55.525Z,48.60
2018-08-22T14:20:22.606Z,48.60
2018-08-22T14:22:49.737Z,48.40
2018-08-22T14:25:16.827Z,48.50
2018-08-22T14:27:43.933Z,48.60
2018-08-22T14:30:11.026Z,48.60
2018-08-22T14:32:38.138Z,48.40
2018-08-22T14:35:05.286Z,48.20
2018-08-22T14:37:32.367Z,48.20
2018-08-22T14:39:59.475Z,48.20
2018-08-22T14:42:26.960Z,48.00
2018-08-22T14:44:54.063Z,47.80
2018-08-22T14:47:21.133Z,48.20
2018-08-22T14:49:48.226Z,48.10
2018-08-22T14:52:15.339Z,47.90
2018-08-22T14:54:42.424Z,47.90
2018-08-22T14:57:09.522Z,47.80
2018-08-22T14:59:36.685Z,47.90
2018-08-22T15:02:03.794Z,48.00
2018-08-22T15:04:30.893Z,48.00
2018-08-22T15:06:57.965Z,48.00
2018-08-22T15:09:25.073Z,48.10
2018-08-22T15:11:52.466Z,48.00
2018-08-22T15:14:19.561Z,48.10
2018-08-22T15:16:46.676Z,48.00
2018-08-22T15:19:14.095Z,47.80
2018-08-22T15:21:41.149Z,48.00
2018-08-22T15:24:08.231Z,47.90
2018-08-22T15:26:35.361Z,47.90
2018-08-22T15:29:02.454Z,47.70
2018-08-22T15:31:29.546Z,47.70
2018-08-22T15:33:56.705Z,47.60
2018-08-22T15:36:23.779Z,47.50
2018-08-22T15:38:50.862Z,47.40
2018-08-22T15:41:18.067Z,47.40
2018-08-22T15:43:45.299Z,47.40
2018-08-22T15:46:12.425Z,47.40
2018-08-22T15:48:39.510Z,47.40
2018-08-22T15:51:06.611Z,47.50
2018-08-22T15:53:33.706Z,47.30
2018-08-22T15:56:00.803Z,47.30
2018-08-22T15:58:27.882Z,47.10
2018-08-22T16:00:55.094Z,47.10
2018-08-22T16:03:23.345Z,47.20
2018-08-22T16:05:51.356Z,47.40
2018-08-22T16:08:20.310Z,47.20
2018-08-22T16:10:47.369Z,47.50
2018-08-22T16:13:20.317Z,47.50
2018-08-22T16:15:48.956Z,47.50
2018-08-22T16:18:16.085Z,47.50
2018-08-22T16:20:51.171Z,47.50
2018-08-22T16:23:18.279Z,47.50
2018-08-22T16:25:46.787Z,47.30
2018-08-22T16:28:15.922Z,47.10
2018-08-22T16:30:43.094Z,47.10
2018-08-22T16:33:10.502Z,47.30
2018-08-22T16:35:37.642Z,47.30
2018-08-22T16:38:08.270Z,47.30
2018-08-22T16:40:36.796Z,47.40
2018-08-22T16:43:04.042Z,47.40
2018-08-22T16:45:32.145Z,47.50
2018-08-22T16:47:59.235Z,47.30
2018-08-22T16:50:26.326Z,47.40
2018-08-22T16:52:53.897Z,47.20
2018-08-22T16:55:22.196Z,47.10
2018-08-22T16:57:55.386Z,47.20
2018-08-22T17:00:37.981Z,47.20
2018-08-22T17:03:11.129Z,47.30
2018-08-22T17:05:44.156Z,47.40
2018-08-22T17:08:17.273Z,47.60
2018-08-22T17:11:01.491Z,47.60
2018-08-22T17:13:43.128Z,47.40
2018-08-22T17:16:10.564Z,47.50
2018-08-22T17:18:38.842Z,47.50
2018-08-22T17:21:06.182Z,47.40
2018-08-22T17:23:33.261Z,47.40
2018-08-22T17:26:00.352Z,47.30
2018-08-22T17:28:36.183Z,47.30
2018-08-22T17:31:03.275Z,47.30
2018-08-22T17:33:36.490Z,47.40
2018-08-22T17:36:03.590Z,47.40
2018-08-22T17:38:30.675Z,47.60
2018-08-22T17:40:57.794Z,47.60
2018-08-22T17:43:24.897Z,47.50
2018-08-22T17:45:51.999Z,47.60
2018-08-22T17:48:20.868Z,47.80
2018-08-22T17:50:48.154Z,48.00
2018-08-22T17:53:15.237Z,48.00
2018-08-22T17:55:42.657Z,48.10
2018-08-22T17:58:09.729Z,48.00
2018-08-22T18:00:37.794Z,48.30
2018-08-22T18:03:04.892Z,48.00
2018-08-22T18:05:33.502Z,48.10
2018-08-22T18:08:01.922Z,48.10
2018-08-22T18:10:29.953Z,48.10
2018-08-22T18:13:01.550Z,48.10
2018-08-22T18:15:28.645Z,48.20
2018-08-22T18:17:56.077Z,48.10
2018-08-22T18:20:23.170Z,48.00
2018-08-22T18:22:50.266Z,48.20
2018-08-22T18:25:17.368Z,48.20
2018-08-22T18:27:44.453Z,48.40
2018-08-22T18:30:11.675Z,48.20
2018-08-22T18:32:38.774Z,48.40
2018-08-22T18:35:11.525Z,48.40
2018-08-22T18:37:39.556Z,48.60
2018-08-22T18:40:18.450Z,48.50
2018-08-22T18:42:47.387Z,48.70
2018-08-22T18:45:14.498Z,48.90
2018-08-22T18:47:41.581Z,49.20
2018-08-22T18:50:09.096Z,49.40
2018-08-22T18:52:36.199Z,49.50
2018-08-22T18:55:03.283Z,49.40
2018-08-22T18:57:30.386Z,49.40
2018-08-22T18:59:57.585Z,49.40
2018-08-22T19:02:24.903Z,49.40
2018-08-22T19:04:52.037Z,49.40
2018-08-22T19:07:19.241Z,49.30
2018-08-22T19:09:46.383Z,49.00
2018-08-22T19:12:13.555Z,48.70
2018-08-22T19:14:44.450Z,48.80
2018-08-22T19:17:13.163Z,48.70
2018-08-22T19:19:43.152Z,48.70
2018-08-22T19:22:10.730Z,49.00
2018-08-22T19:24:37.914Z,48.70
2018-08-22T19:27:05.967Z,48.70
2018-08-22T19:29:33.886Z,49.00
2018-08-22T19:32:01.052Z,49.50
2018-08-22T19:34:28.205Z,50.00
2018-08-22T19:36:55.408Z,50.20
2018-08-22T19:39:22.914Z,49.90
2018-08-22T19:41:50.052Z,49.70
2018-08-22T19:44:17.154Z,49.60
2018-08-22T19:46:44.349Z,49.60
2018-08-22T19:49:11.512Z,49.40
2018-08-22T19:53:03.233Z,49.40
2018-08-22T19:55:31.060Z,49.40
2018-08-22T19:57:58.206Z,49.30
2018-08-22T20:00:25.410Z,49.20
2018-08-22T20:02:52.562Z,49.20
2018-08-22T20:05:19.738Z,49.30
2018-08-22T20:07:47.177Z,49.30
2018-08-22T20:10:14.370Z,49.30
2018-08-22T20:12:44.746Z,49.30
2018-08-22T20:15:12.100Z,49.20
2018-08-22T20:17:39.246Z,49.30
2018-08-22T20:20:07.724Z,49.30
2018-08-22T20:22:41.126Z,49.60
2018-08-22T20:25:08.578Z,49.30
2018-08-22T20:27:35.849Z,49.30
2018-08-22T20:30:09.259Z,49.30
2018-08-22T20:32:36.421Z,49.40
2018-08-22T20:35:03.545Z,49.50
2018-08-22T20:37:30.704Z,49.60
2018-08-22T20:40:03.662Z,49.50
2018-08-22T20:42:30.892Z,49.50
2018-08-22T20:46:22.541Z,49.50
2018-08-22T20:48:50.637Z,49.40
2018-08-22T20:51:17.822Z,49.30
2018-08-22T20:53:47.474Z,49.40
2018-08-22T20:56:14.764Z,49.50
2018-08-22T20:58:42.104Z,49.50
2018-08-22T21:01:09.275Z,49.40
2018-08-22T21:03:38.482Z,49.50
2018-08-22T21:06:09.107Z,49.70
2018-08-22T21:08:36.614Z,49.70
2018-08-22T21:11:03.865Z,50.10
2018-08-22T21:13:31.014Z,49.90
2018-08-22T21:15:58.540Z,50.20
2018-08-22T21:18:25.903Z,50.00
2018-08-22T21:20:53.478Z,50.10
2018-08-22T21:23:20.595Z,50.30
2018-08-22T21:25:47.735Z,50.20
2018-08-22T21:28:14.894Z,50.20
2018-08-22T21:30:47.846Z,51.80
2018-08-22T21:33:14.962Z,51.30
2018-08-22T21:35:42.090Z,51.10
2018-08-22T21:38:14.947Z,51.20
2018-08-22T21:40:42.121Z,50.80
2018-08-22T21:43:10.901Z,50.70
2018-08-22T21:45:38.051Z,50.60
2018-08-22T21:48:13.283Z,50.60
2018-08-22T21:50:40.980Z,50.60
2018-08-22T21:53:08.117Z,50.60
2018-08-22T21:55:36.665Z,50.60
2018-08-22T21:58:06.505Z,50.50
2018-08-22T22:00:35.003Z,50.20
2018-08-22T22:03:02.203Z,50.50
2018-08-22T22:05:40.878Z,50.40
2018-08-22T22:08:08.299Z,50.40
2018-08-22T22:10:35.445Z,50.30
2018-08-22T22:13:02.602Z,50.40
2018-08-22T22:15:35.413Z,50.30
2018-08-22T22:18:02.733Z,50.40
2018-08-22T22:20:29.873Z,50.50
2018-08-22T22:22:57.033Z,50.50
2018-08-22T22:25:24.192Z,50.60
2018-08-22T22:27:51.303Z,50.50
2018-08-22T22:30:18.754Z,50.50
2018-08-22T22:32:45.909Z,50.50
2018-08-22T22:35:16.219Z,50.50
2018-08-22T22:37:43.649Z,50.50
2018-08-22T22:40:10.822Z,50.50
2018-08-22T22:42:37.956Z,50.60
2018-08-22T22:45:05.247Z,50.70
2018-08-22T22:47:33.871Z,50.80
2018-08-22T22:50:01.499Z,50.90
2018-08-22T22:52:44.365Z,51.00
2018-08-22T22:55:11.878Z,51.00
2018-08-22T22:57:40.168Z,51.00
2018-08-22T23:00:09.467Z,51.10
2018-08-22T23:02:36.613Z,51.20
2018-08-22T23:05:03.766Z,51.20
2018-08-22T23:07:32.059Z,51.20
2018-08-22T23:10:00.347Z,51.30
2018-08-22T23:12:39.951Z,51.30
2018-08-22T23:15:10.520Z,51.30
2018-08-22T23:17:37.808Z,51.30
2018-08-22T23:20:11.415Z,51.30
2018-08-22T23:22:39.158Z,51.30
2018-08-22T23:25:06.408Z,51.40
2018-08-22T23:27:33.567Z,51.40
2018-08-22T23:30:00.707Z,51.50
2018-08-22T23:32:27.874Z,51.50
2018-08-22T23:34:55.270Z,51.40
2018-08-22T23:37:22.365Z,51.40
2018-08-22T23:39:49.523Z,51.30
2018-08-22T23:42:16.651Z,51.30
2018-08-22T23:44:45.010Z,51.30
2018-08-22T23:47:12.158Z,51.30
2018-08-22T23:49:45.010Z,51.40
2018-08-22T23:52:12.165Z,51.40
2018-08-22T23:54:43.971Z,51.40
2018-08-22T23:57:11.122Z,51.40
2018-08-22T23:59:38.245Z,51.30
